sensor_id;sensor_type;location;lat;lon;timestamp;P1;durP1;ratioP1;P2;durP2;ratioP2
19456;SDS011;9867;48.094;11.478;2023-06-22T00:00:53;7.73;;;4.37;;
19456;SDS011;9867;48.094;11.478;2023-06-22T00:03:22;9.30;;;4.17;;
19456;SDS011;9867;48.094;11.478;2023-06-22T00:05:51;9.50;;;4.30;;
19456;SDS011;9867;48.094;11.478;2023-06-22T00:08:19;6.80;;;4.30;;
19456;SDS011;9867;48.094;11.478;2023-06-22T00:10:49;8.47;;;4.63;;
19456;SDS011;9867;48.094;11.478;2023-06-22T00:13:17;6.87;;;3.93;;
19456;SDS011;9867;48.094;11.478;2023-06-22T00:15:45;7.53;;;4.10;;
19456;SDS011;9867;48.094;11.478;2023-06-22T00:18:13;9.30;;;4.23;;
19456;SDS011;9867;48.094;11.478;2023-06-22T00:20:42;9.50;;;4.37;;
19456;SDS011;9867;48.094;11.478;2023-06-22T00:23:12;5.80;;;4.40;;
19456;SDS011;9867;48.094;11.478;2023-06-22T00:25:43;10.13;;;4.43;;
19456;SDS011;9867;48.094;11.478;2023-06-22T00:28:12;7.20;;;4.30;;
19456;SDS011;9867;48.094;11.478;2023-06-22T00:30:40;9.93;;;4.50;;
19456;SDS011;9867;48.094;11.478;2023-06-22T00:33:08;7.93;;;4.23;;
19456;SDS011;9867;48.094;11.478;2023-06-22T00:35:38;9.10;;;4.50;;
19456;SDS011;9867;48.094;11.478;2023-06-22T00:38:08;8.10;;;4.50;;
19456;SDS011;9867;48.094;11.478;2023-06-22T00:40:36;6.93;;;3.90;;
19456;SDS011;9867;48.094;11.478;2023-06-22T00:43:04;7.87;;;4.40;;
19456;SDS011;9867;48.094;11.478;2023-06-22T00:45:35;6.77;;;3.97;;
19456;SDS011;9867;48.094;11.478;2023-06-22T00:48:04;7.07;;;4.27;;
19456;SDS011;9867;48.094;11.478;2023-06-22T00:50:33;7.67;;;4.43;;
19456;SDS011;9867;48.094;11.478;2023-06-22T00:53:03;11.23;;;4.27;;
19456;SDS011;9867;48.094;11.478;2023-06-22T00:55:36;9.27;;;5.10;;
19456;SDS011;9867;48.094;11.478;2023-06-22T00:58:05;9.20;;;4.17;;
19456;SDS011;9867;48.094;11.478;2023-06-22T01:00:38;9.27;;;4.20;;
19456;SDS011;9867;48.094;11.478;2023-06-22T01:03:07;7.23;;;4.43;;
19456;SDS011;9867;48.094;11.478;2023-06-22T01:05:37;9.60;;;4.80;;
19456;SDS011;9867;48.094;11.478;2023-06-22T01:08:11;7.30;;;4.50;;
19456;SDS011;9867;48.094;11.478;2023-06-22T01:10:48;8.13;;;4.60;;
19456;SDS011;9867;48.094;11.478;2023-06-22T01:13:22;10.90;;;4.67;;
19456;SDS011;9867;48.094;11.478;2023-06-22T01:15:59;10.40;;;4.73;;
19456;SDS011;9867;48.094;11.478;2023-06-22T01:18:31;8.43;;;4.40;;
19456;SDS011;9867;48.094;11.478;2023-06-22T01:21:04;8.63;;;5.03;;
19456;SDS011;9867;48.094;11.478;2023-06-22T01:23:39;9.43;;;5.00;;
19456;SDS011;9867;48.094;11.478;2023-06-22T01:26:18;9.80;;;5.20;;
19456;SDS011;9867;48.094;11.478;2023-06-22T01:28:55;10.80;;;5.47;;
19456;SDS011;9867;48.094;11.478;2023-06-22T01:31:27;9.50;;;4.33;;
19456;SDS011;9867;48.094;11.478;2023-06-22T01:33:58;7.73;;;4.47;;
19456;SDS011;9867;48.094;11.478;2023-06-22T01:36:28;7.63;;;4.80;;
19456;SDS011;9867;48.094;11.478;2023-06-22T01:38:58;10.03;;;4.60;;
19456;SDS011;9867;48.094;11.478;2023-06-22T01:41:28;7.63;;;4.60;;
19456;SDS011;9867;48.094;11.478;2023-06-22T01:43:58;7.07;;;4.60;;
19456;SDS011;9867;48.094;11.478;2023-06-22T01:46:28;11.00;;;4.70;;
19456;SDS011;9867;48.094;11.478;2023-06-22T01:48:56;7.83;;;4.77;;
19456;SDS011;9867;48.094;11.478;2023-06-22T01:51:24;7.53;;;4.90;;
19456;SDS011;9867;48.094;11.478;2023-06-22T01:53:52;9.37;;;5.00;;
19456;SDS011;9867;48.094;11.478;2023-06-22T01:56:20;10.17;;;4.73;;
19456;SDS011;9867;48.094;11.478;2023-06-22T01:58:50;7.33;;;4.60;;
19456;SDS011;9867;48.094;11.478;2023-06-22T02:01:33;7.20;;;4.80;;
19456;SDS011;9867;48.094;11.478;2023-06-22T02:04:08;8.13;;;4.77;;
19456;SDS011;9867;48.094;11.478;2023-06-22T02:06:41;8.17;;;4.80;;
19456;SDS011;9867;48.094;11.478;2023-06-22T02:09:14;12.17;;;4.70;;
19456;SDS011;9867;48.094;11.478;2023-06-22T02:11:44;6.90;;;4.80;;
19456;SDS011;9867;48.094;11.478;2023-06-22T02:14:14;9.77;;;4.63;;
19456;SDS011;9867;48.094;11.478;2023-06-22T02:16:46;10.83;;;4.80;;
19456;SDS011;9867;48.094;11.478;2023-06-22T02:19:14;9.03;;;5.17;;
19456;SDS011;9867;48.094;11.478;2023-06-22T02:21:44;6.73;;;4.60;;
19456;SDS011;9867;48.094;11.478;2023-06-22T02:24:13;9.03;;;4.40;;
19456;SDS011;9867;48.094;11.478;2023-06-22T02:26:40;9.37;;;4.83;;
19456;SDS011;9867;48.094;11.478;2023-06-22T02:29:11;6.30;;;4.60;;
19456;SDS011;9867;48.094;11.478;2023-06-22T02:31:41;7.37;;;4.80;;
19456;SDS011;9867;48.094;11.478;2023-06-22T02:34:12;8.87;;;4.60;;
19456;SDS011;9867;48.094;11.478;2023-06-22T02:36:44;7.77;;;4.60;;
19456;SDS011;9867;48.094;11.478;2023-06-22T02:39:19;7.27;;;4.53;;
19456;SDS011;9867;48.094;11.478;2023-06-22T02:41:48;8.60;;;4.50;;
19456;SDS011;9867;48.094;11.478;2023-06-22T02:44:17;10.87;;;5.13;;
19456;SDS011;9867;48.094;11.478;2023-06-22T02:46:47;7.60;;;4.87;;
19456;SDS011;9867;48.094;11.478;2023-06-22T02:49:18;10.03;;;4.87;;
19456;SDS011;9867;48.094;11.478;2023-06-22T02:51:46;10.20;;;4.50;;
19456;SDS011;9867;48.094;11.478;2023-06-22T02:54:18;9.80;;;5.83;;
19456;SDS011;9867;48.094;11.478;2023-06-22T02:56:49;8.57;;;5.20;;
19456;SDS011;9867;48.094;11.478;2023-06-22T02:59:17;9.03;;;4.43;;
19456;SDS011;9867;48.094;11.478;2023-06-22T03:01:52;10.07;;;5.27;;
19456;SDS011;9867;48.094;11.478;2023-06-22T03:04:26;6.13;;;4.60;;
19456;SDS011;9867;48.094;11.478;2023-06-22T03:06:54;10.20;;;4.70;;
19456;SDS011;9867;48.094;11.478;2023-06-22T03:09:22;13.53;;;5.57;;
19456;SDS011;9867;48.094;11.478;2023-06-22T03:11:50;7.83;;;4.73;;
19456;SDS011;9867;48.094;11.478;2023-06-22T03:14:19;8.37;;;5.07;;
19456;SDS011;9867;48.094;11.478;2023-06-22T03:16:47;10.23;;;5.47;;
19456;SDS011;9867;48.094;11.478;2023-06-22T03:19:18;8.83;;;5.30;;
19456;SDS011;9867;48.094;11.478;2023-06-22T03:21:47;9.23;;;5.30;;
19456;SDS011;9867;48.094;11.478;2023-06-22T03:24:15;11.97;;;5.70;;
19456;SDS011;9867;48.094;11.478;2023-06-22T03:26:43;5.50;;;4.90;;
19456;SDS011;9867;48.094;11.478;2023-06-22T03:29:13;7.93;;;5.43;;
19456;SDS011;9867;48.094;11.478;2023-06-22T03:31:43;9.57;;;5.33;;
19456;SDS011;9867;48.094;11.478;2023-06-22T03:34:12;11.13;;;5.27;;
19456;SDS011;9867;48.094;11.478;2023-06-22T03:36:39;9.53;;;5.67;;
19456;SDS011;9867;48.094;11.478;2023-06-22T03:39:09;8.07;;;5.40;;
19456;SDS011;9867;48.094;11.478;2023-06-22T03:41:36;8.20;;;5.27;;
19456;SDS011;9867;48.094;11.478;2023-06-22T03:44:05;7.87;;;5.30;;
19456;SDS011;9867;48.094;11.478;2023-06-22T03:46:33;8.97;;;5.97;;
19456;SDS011;9867;48.094;11.478;2023-06-22T03:49:01;8.07;;;5.77;;
19456;SDS011;9867;48.094;11.478;2023-06-22T03:51:32;8.33;;;5.20;;
19456;SDS011;9867;48.094;11.478;2023-06-22T03:54:00;9.40;;;5.77;;
19456;SDS011;9867;48.094;11.478;2023-06-22T03:56:29;6.83;;;5.40;;
19456;SDS011;9867;48.094;11.478;2023-06-22T03:58:57;10.23;;;5.97;;
19456;SDS011;9867;48.094;11.478;2023-06-22T04:01:25;7.37;;;5.70;;
19456;SDS011;9867;48.094;11.478;2023-06-22T04:03:53;12.50;;;6.13;;
19456;SDS011;9867;48.094;11.478;2023-06-22T04:06:21;8.80;;;5.87;;
19456;SDS011;9867;48.094;11.478;2023-06-22T04:08:49;9.80;;;5.70;;
19456;SDS011;9867;48.094;11.478;2023-06-22T04:11:18;11.17;;;6.33;;
19456;SDS011;9867;48.094;11.478;2023-06-22T04:13:47;9.20;;;5.70;;
19456;SDS011;9867;48.094;11.478;2023-06-22T04:16:17;10.67;;;5.60;;
19456;SDS011;9867;48.094;11.478;2023-06-22T04:18:45;12.63;;;5.60;;
19456;SDS011;9867;48.094;11.478;2023-06-22T04:21:13;8.07;;;5.43;;
19456;SDS011;9867;48.094;11.478;2023-06-22T04:23:41;8.83;;;5.77;;
19456;SDS011;9867;48.094;11.478;2023-06-22T04:26:09;11.20;;;5.97;;
19456;SDS011;9867;48.094;11.478;2023-06-22T04:28:37;7.17;;;5.77;;
19456;SDS011;9867;48.094;11.478;2023-06-22T04:31:06;9.80;;;5.83;;
19456;SDS011;9867;48.094;11.478;2023-06-22T04:33:34;9.20;;;6.23;;
19456;SDS011;9867;48.094;11.478;2023-06-22T04:36:02;9.13;;;5.97;;
19456;SDS011;9867;48.094;11.478;2023-06-22T04:38:30;10.63;;;6.30;;
19456;SDS011;9867;48.094;11.478;2023-06-22T04:40:59;10.27;;;6.20;;
19456;SDS011;9867;48.094;11.478;2023-06-22T04:43:29;10.03;;;6.40;;
19456;SDS011;9867;48.094;11.478;2023-06-22T04:45:57;14.63;;;7.03;;
19456;SDS011;9867;48.094;11.478;2023-06-22T04:48:31;11.30;;;6.80;;
19456;SDS011;9867;48.094;11.478;2023-06-22T04:50:59;11.33;;;5.93;;
19456;SDS011;9867;48.094;11.478;2023-06-22T04:53:31;15.70;;;6.87;;
19456;SDS011;9867;48.094;11.478;2023-06-22T04:55:59;11.07;;;6.37;;
19456;SDS011;9867;48.094;11.478;2023-06-22T04:58:27;12.47;;;6.60;;
19456;SDS011;9867;48.094;11.478;2023-06-22T05:00:58;14.00;;;7.40;;
19456;SDS011;9867;48.094;11.478;2023-06-22T05:03:26;11.43;;;6.60;;
19456;SDS011;9867;48.094;11.478;2023-06-22T05:05:56;7.67;;;6.40;;
19456;SDS011;9867;48.094;11.478;2023-06-22T05:08:24;10.80;;;6.77;;
19456;SDS011;9867;48.094;11.478;2023-06-22T05:10:55;11.03;;;7.53;;
19456;SDS011;9867;48.094;11.478;2023-06-22T05:13:31;12.20;;;7.57;;
19456;SDS011;9867;48.094;11.478;2023-06-22T05:15:59;12.13;;;7.40;;
19456;SDS011;9867;48.094;11.478;2023-06-22T05:18:29;12.83;;;7.27;;
19456;SDS011;9867;48.094;11.478;2023-06-22T05:21:00;10.30;;;6.80;;
19456;SDS011;9867;48.094;11.478;2023-06-22T05:23:28;10.83;;;7.27;;
19456;SDS011;9867;48.094;11.478;2023-06-22T05:25:55;10.00;;;6.67;;
19456;SDS011;9867;48.094;11.478;2023-06-22T05:28:24;12.60;;;7.37;;
19456;SDS011;9867;48.094;11.478;2023-06-22T05:30:52;13.37;;;6.67;;
19456;SDS011;9867;48.094;11.478;2023-06-22T05:33:20;12.50;;;7.67;;
19456;SDS011;9867;48.094;11.478;2023-06-22T05:35:48;9.17;;;7.47;;
19456;SDS011;9867;48.094;11.478;2023-06-22T05:38:18;14.03;;;7.17;;
19456;SDS011;9867;48.094;11.478;2023-06-22T05:40:46;9.47;;;7.00;;
19456;SDS011;9867;48.094;11.478;2023-06-22T05:43:13;16.53;;;8.03;;
19456;SDS011;9867;48.094;11.478;2023-06-22T05:45:41;15.37;;;8.13;;
19456;SDS011;9867;48.094;11.478;2023-06-22T05:48:09;9.57;;;7.20;;
19456;SDS011;9867;48.094;11.478;2023-06-22T05:50:37;12.53;;;6.57;;
19456;SDS011;9867;48.094;11.478;2023-06-22T05:53:06;14.40;;;7.17;;
19456;SDS011;9867;48.094;11.478;2023-06-22T05:55:35;11.60;;;6.97;;
19456;SDS011;9867;48.094;11.478;2023-06-22T05:58:03;13.30;;;7.20;;
19456;SDS011;9867;48.094;11.478;2023-06-22T06:00:31;9.80;;;7.73;;
19456;SDS011;9867;48.094;11.478;2023-06-22T06:03:00;12.77;;;7.27;;
19456;SDS011;9867;48.094;11.478;2023-06-22T06:05:30;11.00;;;7.33;;
19456;SDS011;9867;48.094;11.478;2023-06-22T06:07:58;12.47;;;6.97;;
19456;SDS011;9867;48.094;11.478;2023-06-22T06:10:27;14.03;;;7.80;;
19456;SDS011;9867;48.094;11.478;2023-06-22T06:12:58;11.47;;;7.20;;
19456;SDS011;9867;48.094;11.478;2023-06-22T06:15:28;20.07;;;8.03;;
19456;SDS011;9867;48.094;11.478;2023-06-22T06:17:56;15.07;;;7.17;;
19456;SDS011;9867;48.094;11.478;2023-06-22T06:20:28;12.47;;;7.40;;
19456;SDS011;9867;48.094;11.478;2023-06-22T06:22:57;14.10;;;7.60;;
19456;SDS011;9867;48.094;11.478;2023-06-22T06:25:24;12.83;;;8.03;;
19456;SDS011;9867;48.094;11.478;2023-06-22T06:27:53;14.77;;;7.43;;
19456;SDS011;9867;48.094;11.478;2023-06-22T06:30:23;12.60;;;7.50;;
19456;SDS011;9867;48.094;11.478;2023-06-22T06:32:51;11.23;;;7.13;;
19456;SDS011;9867;48.094;11.478;2023-06-22T06:35:19;10.33;;;6.80;;
19456;SDS011;9867;48.094;11.478;2023-06-22T06:37:49;12.93;;;7.50;;
19456;SDS011;9867;48.094;11.478;2023-06-22T06:40:17;12.00;;;7.80;;
19456;SDS011;9867;48.094;11.478;2023-06-22T06:42:46;13.13;;;7.50;;
19456;SDS011;9867;48.094;11.478;2023-06-22T06:45:17;13.53;;;7.37;;
19456;SDS011;9867;48.094;11.478;2023-06-22T06:47:50;13.43;;;8.17;;
19456;SDS011;9867;48.094;11.478;2023-06-22T06:50:19;10.47;;;7.13;;
19456;SDS011;9867;48.094;11.478;2023-06-22T06:52:47;12.20;;;7.33;;
19456;SDS011;9867;48.094;11.478;2023-06-22T06:55:17;15.03;;;7.90;;
19456;SDS011;9867;48.094;11.478;2023-06-22T06:57:45;17.00;;;8.13;;
19456;SDS011;9867;48.094;11.478;2023-06-22T07:00:15;11.07;;;7.07;;
19456;SDS011;9867;48.094;11.478;2023-06-22T07:02:44;15.53;;;7.70;;
19456;SDS011;9867;48.094;11.478;2023-06-22T07:05:16;14.07;;;7.70;;
19456;SDS011;9867;48.094;11.478;2023-06-22T07:07:44;11.90;;;7.87;;
19456;SDS011;9867;48.094;11.478;2023-06-22T07:10:12;11.10;;;7.27;;
19456;SDS011;9867;48.094;11.478;2023-06-22T07:12:41;12.63;;;6.97;;
19456;SDS011;9867;48.094;11.478;2023-06-22T07:15:09;12.13;;;7.10;;
19456;SDS011;9867;48.094;11.478;2023-06-22T07:17:39;13.27;;;6.97;;
19456;SDS011;9867;48.094;11.478;2023-06-22T07:20:08;13.77;;;7.70;;
19456;SDS011;9867;48.094;11.478;2023-06-22T07:22:53;14.53;;;7.33;;
19456;SDS011;9867;48.094;11.478;2023-06-22T07:25:21;13.30;;;7.10;;
19456;SDS011;9867;48.094;11.478;2023-06-22T07:27:56;12.77;;;6.93;;
19456;SDS011;9867;48.094;11.478;2023-06-22T07:30:25;14.87;;;7.90;;
19456;SDS011;9867;48.094;11.478;2023-06-22T07:32:54;13.80;;;7.23;;
19456;SDS011;9867;48.094;11.478;2023-06-22T07:35:22;11.83;;;7.50;;
19456;SDS011;9867;48.094;11.478;2023-06-22T07:37:50;14.13;;;7.80;;
19456;SDS011;9867;48.094;11.478;2023-06-22T07:40:19;13.20;;;7.43;;
19456;SDS011;9867;48.094;11.478;2023-06-22T07:42:47;12.27;;;7.83;;
19456;SDS011;9867;48.094;11.478;2023-06-22T07:45:18;13.77;;;7.77;;
19456;SDS011;9867;48.094;11.478;2023-06-22T07:47:46;14.27;;;7.13;;
19456;SDS011;9867;48.094;11.478;2023-06-22T07:50:14;13.77;;;7.60;;
19456;SDS011;9867;48.094;11.478;2023-06-22T07:52:41;13.57;;;6.97;;
19456;SDS011;9867;48.094;11.478;2023-06-22T07:55:09;14.13;;;7.10;;
19456;SDS011;9867;48.094;11.478;2023-06-22T07:57:39;19.43;;;8.07;;
19456;SDS011;9867;48.094;11.478;2023-06-22T08:00:09;17.07;;;7.30;;
19456;SDS011;9867;48.094;11.478;2023-06-22T08:02:42;17.50;;;7.80;;
19456;SDS011;9867;48.094;11.478;2023-06-22T08:05:12;12.10;;;7.47;;
19456;SDS011;9867;48.094;11.478;2023-06-22T08:07:48;14.73;;;7.93;;
19456;SDS011;9867;48.094;11.478;2023-06-22T08:10:16;12.90;;;7.40;;
19456;SDS011;9867;48.094;11.478;2023-06-22T08:12:45;14.17;;;7.07;;
19456;SDS011;9867;48.094;11.478;2023-06-22T08:15:13;13.60;;;7.10;;
19456;SDS011;9867;48.094;11.478;2023-06-22T08:17:42;12.20;;;7.33;;
19456;SDS011;9867;48.094;11.478;2023-06-22T08:20:10;19.43;;;7.23;;
19456;SDS011;9867;48.094;11.478;2023-06-22T08:22:39;14.70;;;6.57;;
19456;SDS011;9867;48.094;11.478;2023-06-22T08:25:08;13.33;;;7.17;;
19456;SDS011;9867;48.094;11.478;2023-06-22T08:27:36;11.67;;;6.93;;
19456;SDS011;9867;48.094;11.478;2023-06-22T08:30:06;16.60;;;7.57;;
19456;SDS011;9867;48.094;11.478;2023-06-22T08:32:37;13.77;;;7.73;;
19456;SDS011;9867;48.094;11.478;2023-06-22T08:35:05;13.27;;;7.40;;
19456;SDS011;9867;48.094;11.478;2023-06-22T08:37:34;12.53;;;6.97;;
19456;SDS011;9867;48.094;11.478;2023-06-22T08:40:03;15.10;;;7.00;;
19456;SDS011;9867;48.094;11.478;2023-06-22T08:42:34;15.50;;;7.33;;
19456;SDS011;9867;48.094;11.478;2023-06-22T08:45:06;14.13;;;7.20;;
19456;SDS011;9867;48.094;11.478;2023-06-22T08:47:35;14.53;;;7.67;;
19456;SDS011;9867;48.094;11.478;2023-06-22T08:50:03;13.60;;;7.43;;
19456;SDS011;9867;48.094;11.478;2023-06-22T08:52:33;11.93;;;6.77;;
19456;SDS011;9867;48.094;11.478;2023-06-22T08:55:00;17.07;;;7.00;;
19456;SDS011;9867;48.094;11.478;2023-06-22T08:57:28;14.93;;;7.13;;
19456;SDS011;9867;48.094;11.478;2023-06-22T08:59:58;13.27;;;7.13;;
19456;SDS011;9867;48.094;11.478;2023-06-22T09:02:52;16.70;;;7.00;;
19456;SDS011;9867;48.094;11.478;2023-06-22T09:05:25;14.80;;;7.00;;
19456;SDS011;9867;48.094;11.478;2023-06-22T09:07:55;12.07;;;6.80;;
19456;SDS011;9867;48.094;11.478;2023-06-22T09:10:25;16.07;;;7.03;;
19456;SDS011;9867;48.094;11.478;2023-06-22T09:12:53;14.13;;;6.90;;
19456;SDS011;9867;48.094;11.478;2023-06-22T09:15:21;15.77;;;6.57;;
19456;SDS011;9867;48.094;11.478;2023-06-22T09:17:49;20.73;;;6.90;;
19456;SDS011;9867;48.094;11.478;2023-06-22T09:20:22;13.90;;;6.53;;
19456;SDS011;9867;48.094;11.478;2023-06-22T09:22:50;11.93;;;6.60;;
19456;SDS011;9867;48.094;11.478;2023-06-22T09:25:18;14.50;;;6.33;;
19456;SDS011;9867;48.094;11.478;2023-06-22T09:27:47;18.33;;;6.90;;
19456;SDS011;9867;48.094;11.478;2023-06-22T09:30:15;20.87;;;7.80;;
19456;SDS011;9867;48.094;11.478;2023-06-22T09:32:43;15.47;;;7.00;;
19456;SDS011;9867;48.094;11.478;2023-06-22T09:35:11;12.87;;;6.87;;
19456;SDS011;9867;48.094;11.478;2023-06-22T09:37:41;16.13;;;7.53;;
19456;SDS011;9867;48.094;11.478;2023-06-22T09:40:09;14.57;;;6.47;;
19456;SDS011;9867;48.094;11.478;2023-06-22T09:42:41;12.10;;;6.80;;
19456;SDS011;9867;48.094;11.478;2023-06-22T09:45:10;12.97;;;7.17;;
19456;SDS011;9867;48.094;11.478;2023-06-22T09:47:38;14.33;;;7.00;;
19456;SDS011;9867;48.094;11.478;2023-06-22T09:50:06;13.53;;;7.27;;
19456;SDS011;9867;48.094;11.478;2023-06-22T09:52:35;14.87;;;6.80;;
19456;SDS011;9867;48.094;11.478;2023-06-22T09:55:07;13.03;;;6.90;;
19456;SDS011;9867;48.094;11.478;2023-06-22T09:57:36;13.47;;;6.53;;
19456;SDS011;9867;48.094;11.478;2023-06-22T10:00:04;18.30;;;7.50;;
19456;SDS011;9867;48.094;11.478;2023-06-22T10:02:35;12.47;;;6.50;;
19456;SDS011;9867;48.094;11.478;2023-06-22T10:05:03;16.10;;;6.53;;
19456;SDS011;9867;48.094;11.478;2023-06-22T10:07:32;16.80;;;6.53;;
19456;SDS011;9867;48.094;11.478;2023-06-22T10:10:00;18.83;;;7.33;;
19456;SDS011;9867;48.094;11.478;2023-06-22T10:12:30;12.77;;;6.30;;
19456;SDS011;9867;48.094;11.478;2023-06-22T10:14:58;18.77;;;7.17;;
19456;SDS011;9867;48.094;11.478;2023-06-22T10:17:26;19.03;;;7.00;;
19456;SDS011;9867;48.094;11.478;2023-06-22T10:19:54;11.03;;;6.13;;
19456;SDS011;9867;48.094;11.478;2023-06-22T10:22:22;14.80;;;6.57;;
19456;SDS011;9867;48.094;11.478;2023-06-22T10:24:50;18.07;;;6.50;;
19456;SDS011;9867;48.094;11.478;2023-06-22T10:27:18;11.17;;;6.43;;
19456;SDS011;9867;48.094;11.478;2023-06-22T10:29:47;16.03;;;6.50;;
19456;SDS011;9867;48.094;11.478;2023-06-22T10:32:15;14.23;;;6.37;;
19456;SDS011;9867;48.094;11.478;2023-06-22T10:34:43;15.07;;;6.77;;
19456;SDS011;9867;48.094;11.478;2023-06-22T10:37:10;16.17;;;7.30;;
19456;SDS011;9867;48.094;11.478;2023-06-22T10:39:38;13.93;;;7.00;;
19456;SDS011;9867;48.094;11.478;2023-06-22T10:42:06;14.13;;;6.60;;
19456;SDS011;9867;48.094;11.478;2023-06-22T10:44:34;13.80;;;6.73;;
19456;SDS011;9867;48.094;11.478;2023-06-22T10:47:04;16.97;;;6.83;;
19456;SDS011;9867;48.094;11.478;2023-06-22T10:49:32;13.83;;;6.80;;
19456;SDS011;9867;48.094;11.478;2023-06-22T10:52:00;16.10;;;6.33;;
19456;SDS011;9867;48.094;11.478;2023-06-22T10:54:28;11.87;;;6.30;;
19456;SDS011;9867;48.094;11.478;2023-06-22T10:56:55;16.27;;;6.27;;
19456;SDS011;9867;48.094;11.478;2023-06-22T10:59:24;13.00;;;6.80;;
19456;SDS011;9867;48.094;11.478;2023-06-22T11:01:52;13.53;;;6.83;;
19456;SDS011;9867;48.094;11.478;2023-06-22T11:04:21;17.27;;;7.07;;
19456;SDS011;9867;48.094;11.478;2023-06-22T11:06:49;14.80;;;6.67;;
19456;SDS011;9867;48.094;11.478;2023-06-22T11:09:17;13.87;;;7.23;;
19456;SDS011;9867;48.094;11.478;2023-06-22T11:11:55;18.50;;;7.30;;
19456;SDS011;9867;48.094;11.478;2023-06-22T11:14:25;18.90;;;6.80;;
19456;SDS011;9867;48.094;11.478;2023-06-22T11:16:53;15.67;;;7.07;;
19456;SDS011;9867;48.094;11.478;2023-06-22T11:19:23;11.53;;;6.90;;
19456;SDS011;9867;48.094;11.478;2023-06-22T11:21:51;13.03;;;6.23;;
19456;SDS011;9867;48.094;11.478;2023-06-22T11:24:19;14.07;;;6.77;;
19456;SDS011;9867;48.094;11.478;2023-06-22T11:26:47;16.47;;;6.63;;
19456;SDS011;9867;48.094;11.478;2023-06-22T11:29:15;14.93;;;6.70;;
19456;SDS011;9867;48.094;11.478;2023-06-22T11:32:01;16.83;;;6.50;;
19456;SDS011;9867;48.094;11.478;2023-06-22T11:34:31;15.43;;;6.80;;
19456;SDS011;9867;48.094;11.478;2023-06-22T11:36:59;13.30;;;6.70;;
19456;SDS011;9867;48.094;11.478;2023-06-22T11:39:26;14.00;;;6.60;;
19456;SDS011;9867;48.094;11.478;2023-06-22T11:42:08;14.30;;;6.57;;
19456;SDS011;9867;48.094;11.478;2023-06-22T11:44:36;13.27;;;6.80;;
19456;SDS011;9867;48.094;11.478;2023-06-22T11:47:05;16.60;;;6.67;;
19456;SDS011;9867;48.094;11.478;2023-06-22T11:49:34;13.03;;;6.60;;
19456;SDS011;9867;48.094;11.478;2023-06-22T11:52:04;13.73;;;6.30;;
19456;SDS011;9867;48.094;11.478;2023-06-22T11:54:32;14.13;;;6.67;;
19456;SDS011;9867;48.094;11.478;2023-06-22T11:57:00;15.57;;;6.50;;
19456;SDS011;9867;48.094;11.478;2023-06-22T11:59:28;16.53;;;6.60;;
19456;SDS011;9867;48.094;11.478;2023-06-22T12:01:56;17.20;;;6.50;;
19456;SDS011;9867;48.094;11.478;2023-06-22T12:04:25;16.33;;;6.73;;
19456;SDS011;9867;48.094;11.478;2023-06-22T12:06:55;18.10;;;6.57;;
19456;SDS011;9867;48.094;11.478;2023-06-22T12:09:23;18.90;;;6.80;;
19456;SDS011;9867;48.094;11.478;2023-06-22T12:11:50;16.40;;;7.03;;
19456;SDS011;9867;48.094;11.478;2023-06-22T12:14:18;13.03;;;6.40;;
19456;SDS011;9867;48.094;11.478;2023-06-22T12:16:46;17.07;;;6.60;;
19456;SDS011;9867;48.094;11.478;2023-06-22T12:19:14;16.67;;;6.50;;
19456;SDS011;9867;48.094;11.478;2023-06-22T12:21:42;17.20;;;6.90;;
19456;SDS011;9867;48.094;11.478;2023-06-22T12:24:13;18.63;;;6.50;;
19456;SDS011;9867;48.094;11.478;2023-06-22T12:26:41;15.97;;;6.57;;
19456;SDS011;9867;48.094;11.478;2023-06-22T12:29:10;14.50;;;6.63;;
19456;SDS011;9867;48.094;11.478;2023-06-22T12:31:38;15.97;;;6.67;;
19456;SDS011;9867;48.094;11.478;2023-06-22T12:34:06;14.77;;;6.80;;
19456;SDS011;9867;48.094;11.478;2023-06-22T12:36:34;19.43;;;6.63;;
19456;SDS011;9867;48.094;11.478;2023-06-22T12:39:02;16.17;;;7.07;;
19456;SDS011;9867;48.094;11.478;2023-06-22T12:41:31;13.83;;;6.53;;
19456;SDS011;9867;48.094;11.478;2023-06-22T12:43:59;15.50;;;6.67;;
19456;SDS011;9867;48.094;11.478;2023-06-22T12:46:27;14.60;;;6.70;;
19456;SDS011;9867;48.094;11.478;2023-06-22T12:48:56;19.53;;;6.67;;
19456;SDS011;9867;48.094;11.478;2023-06-22T12:51:24;17.57;;;6.47;;
19456;SDS011;9867;48.094;11.478;2023-06-22T12:53:52;13.30;;;6.20;;
19456;SDS011;9867;48.094;11.478;2023-06-22T12:56:20;15.60;;;6.93;;
19456;SDS011;9867;48.094;11.478;2023-06-22T12:58:49;19.37;;;6.73;;
19456;SDS011;9867;48.094;11.478;2023-06-22T13:01:17;13.90;;;6.07;;
19456;SDS011;9867;48.094;11.478;2023-06-22T13:03:45;14.93;;;6.23;;
19456;SDS011;9867;48.094;11.478;2023-06-22T13:06:13;15.77;;;6.30;;
19456;SDS011;9867;48.094;11.478;2023-06-22T13:08:40;14.23;;;6.47;;
19456;SDS011;9867;48.094;11.478;2023-06-22T13:11:29;14.90;;;6.70;;
19456;SDS011;9867;48.094;11.478;2023-06-22T13:13:58;13.67;;;6.27;;
19456;SDS011;9867;48.094;11.478;2023-06-22T13:16:26;13.10;;;6.40;;
19456;SDS011;9867;48.094;11.478;2023-06-22T13:18:54;17.27;;;6.60;;
19456;SDS011;9867;48.094;11.478;2023-06-22T13:21:22;14.53;;;6.33;;
19456;SDS011;9867;48.094;11.478;2023-06-22T13:23:50;17.50;;;6.83;;
19456;SDS011;9867;48.094;11.478;2023-06-22T13:26:18;15.57;;;6.03;;
19456;SDS011;9867;48.094;11.478;2023-06-22T13:28:45;16.10;;;6.17;;
19456;SDS011;9867;48.094;11.478;2023-06-22T13:31:15;13.47;;;6.27;;
19456;SDS011;9867;48.094;11.478;2023-06-22T13:33:43;15.50;;;6.20;;
19456;SDS011;9867;48.094;11.478;2023-06-22T13:36:12;11.50;;;5.70;;
19456;SDS011;9867;48.094;11.478;2023-06-22T13:38:40;15.97;;;6.80;;
19456;SDS011;9867;48.094;11.478;2023-06-22T13:41:08;16.47;;;6.10;;
19456;SDS011;9867;48.094;11.478;2023-06-22T13:43:35;17.63;;;6.53;;
19456;SDS011;9867;48.094;11.478;2023-06-22T13:46:03;17.80;;;6.47;;
19456;SDS011;9867;48.094;11.478;2023-06-22T13:48:33;16.67;;;6.40;;
19456;SDS011;9867;48.094;11.478;2023-06-22T13:51:00;11.80;;;6.33;;
19456;SDS011;9867;48.094;11.478;2023-06-22T13:53:28;16.17;;;6.43;;
19456;SDS011;9867;48.094;11.478;2023-06-22T13:55:56;15.87;;;6.07;;
19456;SDS011;9867;48.094;11.478;2023-06-22T13:58:24;17.47;;;6.87;;
19456;SDS011;9867;48.094;11.478;2023-06-22T14:00:52;16.90;;;6.13;;
19456;SDS011;9867;48.094;11.478;2023-06-22T14:03:22;16.97;;;6.67;;
19456;SDS011;9867;48.094;11.478;2023-06-22T14:05:51;14.03;;;6.20;;
19456;SDS011;9867;48.094;11.478;2023-06-22T14:08:22;16.73;;;6.67;;
19456;SDS011;9867;48.094;11.478;2023-06-22T14:11:07;15.80;;;5.73;;
19456;SDS011;9867;48.094;11.478;2023-06-22T14:13:35;12.93;;;6.00;;
19456;SDS011;9867;48.094;11.478;2023-06-22T14:16:03;12.37;;;6.10;;
19456;SDS011;9867;48.094;11.478;2023-06-22T14:18:32;15.33;;;6.60;;
19456;SDS011;9867;48.094;11.478;2023-06-22T14:21:01;17.17;;;5.80;;
19456;SDS011;9867;48.094;11.478;2023-06-22T14:23:29;12.77;;;5.97;;
19456;SDS011;9867;48.094;11.478;2023-06-22T14:25:57;14.47;;;5.73;;
19456;SDS011;9867;48.094;11.478;2023-06-22T14:28:25;15.83;;;6.07;;
19456;SDS011;9867;48.094;11.478;2023-06-22T14:30:53;16.10;;;6.20;;
19456;SDS011;9867;48.094;11.478;2023-06-22T14:33:22;15.27;;;5.97;;
19456;SDS011;9867;48.094;11.478;2023-06-22T14:35:50;14.67;;;6.13;;
19456;SDS011;9867;48.094;11.478;2023-06-22T14:38:19;13.63;;;6.40;;
19456;SDS011;9867;48.094;11.478;2023-06-22T14:40:47;15.30;;;5.97;;
19456;SDS011;9867;48.094;11.478;2023-06-22T14:43:35;15.53;;;5.87;;
19456;SDS011;9867;48.094;11.478;2023-06-22T14:46:03;14.27;;;5.93;;
19456;SDS011;9867;48.094;11.478;2023-06-22T14:48:31;14.10;;;5.97;;
19456;SDS011;9867;48.094;11.478;2023-06-22T14:50:59;13.90;;;6.40;;